^^
NorthLandsweather Station Historical Data
 
Daily Summary for August 21, 2019 Units:  English    Metric   Both
Daily Weekly Monthly Yearly Custom
  Current: High: Low: Average:
Temperature: 55.5 °F 65.8 °F 55.5 °F 60.1 °F
Dew Point: 53.5 °F 63.1 °F 53.5 °F 57.9 °F
Humidity: 93% 93% 91% 93%
Wind Speed: 0mph 3mph 0mph 0.2mph
Wind Gust: 0mph 0.8mph - -
WindCalm - - SW
Pressure: 29.96 in 30.01 in 29.96 in -
Precipitation: 0 in      
Historical Graphs
 
 
Tabular Data for August 21, 2019
Time Temperature Dew Point Pressure Wind Wind Speed Wind Gust Humidity Rainfall Rate (Hourly) solar
00:00 65.8 °F 63.1 °F 29.98 in Calm     91% 0 in 0.00 W/m2
00:05 65.7 °F 63 °F 29.98 in Calm     91% 0 in 0.00 W/m2
00:10 65.4 °F 62.7 °F 29.99 in Calm     91% 0 in 0.00 W/m2
00:15 65 °F 62.3 °F 29.99 in Calm     91% 0 in 0.00 W/m2
00:20 64.7 °F 62 °F 29.99 in Calm     91% 0 in 0.00 W/m2
00:25 64.5 °F 62.1 °F 29.99 in Calm     92% 0 in 0.00 W/m2
00:30 64.1 °F 61.7 °F 29.99 in Calm     92% 0 in 0.00 W/m2
00:35 63.9 °F 61.5 °F 29.99 in Calm     92% 0 in 0.00 W/m2
00:40 63.7 °F 61.3 °F 29.99 in Calm     92% 0 in 0.00 W/m2
00:45 63.5 °F 61.1 °F 29.99 in Calm     92% 0 in 0.00 W/m2
00:50 63.3 °F 60.9 °F 29.99 in Calm     92% 0 in 0.00 W/m2
00:55 63.1 °F 60.7 °F 29.99 in Calm     92% 0 in 0.00 W/m2
01:00 62.8 °F 60.4 °F 29.99 in Calm     92% 0 in 0.00 W/m2
01:05 62.5 °F 60.1 °F 29.99 in Calm     92% 0 in 0.00 W/m2
01:10 62.3 °F 59.9 °F 30.00 in Calm     92% 0 in 0.00 W/m2
01:15 62.1 °F 59.7 °F 30.00 in Calm     92% 0 in 0.00 W/m2
01:20 61.9 °F 59.5 °F 30.00 in Calm     92% 0 in 0.00 W/m2
01:25 61.7 °F 59.4 °F 30.00 in Calm     92% 0 in 0.00 W/m2
01:30 61.5 °F 59.2 °F 30.00 in Calm     92% 0 in 0.00 W/m2
01:35 61.3 °F 59 °F 30.00 in Calm     92% 0 in 0.00 W/m2
01:40 61 °F 58.7 °F 30.00 in Calm     92% 0 in 0.00 W/m2
01:45 60.8 °F 58.5 °F 30.00 in Calm     92% 0 in 0.00 W/m2
01:50 60.6 °F 58.3 °F 30.00 in Calm     92% 0 in 0.00 W/m2
01:55 60.4 °F 58.1 °F 30.00 in Calm     92% 0 in 0.00 W/m2
02:00 60.2 °F 57.9 °F 30.00 in Calm     92% 0 in 0.00 W/m2
02:05 60 °F 57.7 °F 30.00 in Calm     92% 0 in 0.00 W/m2
02:10 59.8 °F 57.8 °F 30.00 in Calm     93% 0 in 0.00 W/m2
02:15 59.6 °F 57.6 °F 30.00 in Calm     93% 0 in 0.00 W/m2
02:20 59.5 °F 57.5 °F 30.00 in Calm     93% 0 in 0.00 W/m2
02:25 59.5 °F 57.5 °F 30.00 in Calm     93% 0 in 0.00 W/m2
02:30 59.5 °F 57.5 °F 30.01 in Calm     93% 0 in 0.00 W/m2
02:35 59.5 °F 57.5 °F 30.01 in Calm     93% 0 in 0.00 W/m2
02:40 59.4 °F 57.4 °F 30.01 in NNW 1.2 mph 0.4 mph 93% 0 in 0.00 W/m2
02:45 59.3 °F 57.3 °F 30.00 in North 3 mph 0.1 mph 93% 0 in 0.00 W/m2
02:50 59.5 °F 57.5 °F 30.00 in North 1 mph   93% 0 in 0.00 W/m2
02:55 59.7 °F 57.7 °F 30.00 in SW 1.2 mph 0.3 mph 93% 0 in 0.00 W/m2
03:00 59.8 °F 57.8 °F 30.00 in SW 2.3 mph 0.8 mph 93% 0 in 0.00 W/m2
03:05 59.8 °F 57.8 °F 30.00 in SW 2 mph 0.1 mph 93% 0 in 0.00 W/m2
03:10 59.7 °F 57.7 °F 30.00 in SW 1.2 mph 0.1 mph 93% 0 in 0.00 W/m2
03:15 59.6 °F 57.6 °F 30.00 in SW 1.2 mph 0.1 mph 93% 0 in 0.00 W/m2
03:20 59.5 °F 57.5 °F 30.00 in Calm     93% 0 in 0.00 W/m2
03:25 59.3 °F 57.3 °F 30.00 in Calm     93% 0 in 0.00 W/m2
03:30 59.2 °F 57.2 °F 30.00 in Calm     93% 0 in 0.00 W/m2
03:35 59 °F 57 °F 30.00 in Calm     93% 0 in 0.00 W/m2
03:40 58.8 °F 56.8 °F 30.00 in Calm     93% 0 in 0.00 W/m2
03:45 58.7 °F 56.7 °F 29.99 in Calm     93% 0 in 0.00 W/m2
03:50 58.5 °F 56.5 °F 30.00 in SW 1.2 mph 0.1 mph 93% 0 in 0.00 W/m2
03:55 58.4 °F 56.4 °F 29.99 in Calm     93% 0 in 0.00 W/m2
04:00 58.3 °F 56.3 °F 29.99 in Calm     93% 0 in 0.00 W/m2
04:05 58.2 °F 56.2 °F 29.99 in Calm     93% 0 in 0.00 W/m2
04:10 58 °F 56 °F 29.99 in Calm     93% 0 in 0.00 W/m2
04:15 57.8 °F 55.8 °F 29.98 in Calm     93% 0 in 0.00 W/m2
04:20 57.7 °F 55.7 °F 29.98 in Calm     93% 0 in 0.00 W/m2
04:25 57.5 °F 55.5 °F 29.98 in Calm     93% 0 in 0.00 W/m2
04:30 57.3 °F 55.3 °F 29.97 in Calm     93% 0 in 0.00 W/m2
04:35 57.1 °F 55.1 °F 29.98 in Calm     93% 0 in 0.00 W/m2
04:40 56.8 °F 54.8 °F 29.97 in Calm     93% 0 in 0.00 W/m2
04:45 56.7 °F 54.7 °F 29.96 in Calm     93% 0 in 0.00 W/m2
04:50 56.5 °F 54.5 °F 29.97 in Calm     93% 0 in 0.00 W/m2
04:55 56.2 °F 54.2 °F 29.97 in Calm     93% 0 in 0.00 W/m2
05:00 56 °F 54 °F 29.97 in Calm     93% 0 in 0.00 W/m2
05:05 55.8 °F 53.8 °F 29.97 in Calm     93% 0 in 0.00 W/m2
05:10 55.7 °F 53.7 °F 29.96 in Calm     93% 0 in 0.00 W/m2
05:15 55.6 °F 53.6 °F 29.96 in Calm     93% 0 in 0.00 W/m2
05:20 55.5 °F 53.5 °F 29.96 in Calm     93% 0 in 0.00 W/m2
Winter, Wisconsin USA
Compliments of Weather Underground - 2 mb